BTK6226 WIII-WIOO
Flight info
| Callsign | BTK6226 |
|---|---|
| Flight time | 1h 8m |
| Altitude | 37000 |
| Route | ABASA W14 OLVES |
| Aircraft | A320/M-SDE3FGHIRWY/LB1 |
Departure
| Time | 2026-05-01 08:30 |
|---|---|
| Airport | Soekarno-Hatta International Airport (WIII) |
Arrival
| Time | 2026-05-01 09:39 |
|---|---|
| Airport | Supadio International Airport (WIOO) |
| Time | Latitude | Longitude | Altitude | Speed | Heading |
|---|---|---|---|---|---|
| 2026-05-01 08:06 | -6.12401 | 106.64889 | 38 ft | 0 kts | 95° |
| 2026-05-01 08:19 | -6.12399 | 106.64861 | 38 ft | 3 kts | 92° |
| 2026-05-01 08:19 | -6.12399 | 106.64841 | 38 ft | 3 kts | 88° |
| 2026-05-01 08:19 | -6.12400 | 106.64821 | 38 ft | 3 kts | 77° |
| 2026-05-01 08:19 | -6.12406 | 106.64803 | 38 ft | 3 kts | 41° |
| 2026-05-01 08:20 | -6.12415 | 106.64797 | 38 ft | 1 kts | 343° |
| 2026-05-01 08:20 | -6.12416 | 106.64798 | 38 ft | 0 kts | 341° |
| 2026-05-01 08:25 | -6.12415 | 106.64797 | 38 ft | 2 kts | 341° |
| 2026-05-01 08:25 | -6.12352 | 106.64776 | 36 ft | 11 kts | 341° |
| 2026-05-01 08:25 | -6.12286 | 106.64763 | 36 ft | 9 kts | 354° |
| 2026-05-01 08:25 | -6.12200 | 106.64741 | 38 ft | 16 kts | 338° |
| 2026-05-01 08:26 | -6.12100 | 106.64701 | 37 ft | 14 kts | 332° |
| 2026-05-01 08:26 | -6.12090 | 106.64625 | 37 ft | 11 kts | 248° |
| 2026-05-01 08:26 | -6.12116 | 106.64559 | 38 ft | 10 kts | 248° |
| 2026-05-01 08:26 | -6.12138 | 106.64503 | 38 ft | 6 kts | 248° |
| 2026-05-01 08:27 | -6.12148 | 106.64479 | 38 ft | 2 kts | 248° |
| 2026-05-01 08:27 | -6.12177 | 106.64405 | 38 ft | 23 kts | 248° |
| 2026-05-01 08:27 | -6.12245 | 106.64235 | 38 ft | 22 kts | 248° |
| 2026-05-01 08:27 | -6.12300 | 106.64098 | 38 ft | 15 kts | 248° |
| 2026-05-01 08:28 | -6.12335 | 106.64012 | 37 ft | 11 kts | 246° |
| 2026-05-01 08:28 | -6.12333 | 106.63953 | 39 ft | 7 kts | 298° |
| 2026-05-01 08:28 | -6.12293 | 106.63925 | 39 ft | 10 kts | 334° |
| 2026-05-01 08:28 | -6.12215 | 106.63886 | 39 ft | 14 kts | 333° |
| 2026-05-01 08:29 | -6.12126 | 106.63898 | 39 ft | 14 kts | 25° |
| 2026-05-01 08:29 | -6.12057 | 106.63970 | 38 ft | 16 kts | 69° |
| 2026-05-01 08:29 | -6.12010 | 106.64088 | 38 ft | 29 kts | 68° |
| 2026-05-01 08:29 | -6.11839 | 106.64517 | 39 ft | 99 kts | 68° |
| 2026-05-01 08:30 | -6.11512 | 106.65336 | 37 ft | 152 kts | 68° |
| 2026-05-01 08:30 | -6.11087 | 106.66404 | 420 ft | 165 kts | 66° |
| 2026-05-01 08:30 | -6.10671 | 106.67478 | 1091 ft | 164 kts | 66° |
| 2026-05-01 08:30 | -6.10124 | 106.68473 | 1726 ft | 164 kts | 46° |
| 2026-05-01 08:31 | -6.09302 | 106.69313 | 2115 ft | 176 kts | 42° |
| 2026-05-01 08:31 | -6.08371 | 106.70225 | 2302 ft | 199 kts | 46° |
| 2026-05-01 08:31 | -6.07332 | 106.71274 | 2419 ft | 223 kts | 45° |
| 2026-05-01 08:31 | -6.06157 | 106.72383 | 2531 ft | 242 kts | 36° |
| 2026-05-01 08:32 | -6.04568 | 106.73130 | 2703 ft | 262 kts | 22° |
| 2026-05-01 08:32 | -6.02852 | 106.73829 | 3107 ft | 269 kts | 23° |
| 2026-05-01 08:32 | -6.01112 | 106.74558 | 3561 ft | 272 kts | 23° |
| 2026-05-01 08:32 | -5.99356 | 106.75297 | 4028 ft | 275 kts | 24° |
| 2026-05-01 08:33 | -5.97585 | 106.76046 | 4475 ft | 278 kts | 23° |
| 2026-05-01 08:33 | -5.95809 | 106.76799 | 4928 ft | 281 kts | 24° |
| 2026-05-01 08:33 | -5.94001 | 106.77565 | 5377 ft | 283 kts | 24° |
| 2026-05-01 08:33 | -5.92178 | 106.78335 | 5823 ft | 285 kts | 24° |
| 2026-05-01 08:34 | -5.90338 | 106.79108 | 6246 ft | 288 kts | 24° |
| 2026-05-01 08:34 | -5.88483 | 106.79888 | 6669 ft | 290 kts | 24° |
| 2026-05-01 08:34 | -5.86617 | 106.80672 | 7075 ft | 292 kts | 24° |
| 2026-05-01 08:34 | -5.84738 | 106.81461 | 7464 ft | 294 kts | 24° |
| 2026-05-01 08:35 | -5.82847 | 106.82254 | 7848 ft | 296 kts | 23° |
| 2026-05-01 08:35 | -5.80945 | 106.83052 | 8225 ft | 297 kts | 23° |
| 2026-05-01 08:35 | -5.79034 | 106.83855 | 8574 ft | 299 kts | 23° |
| 2026-05-01 08:35 | -5.77110 | 106.84664 | 8923 ft | 301 kts | 23° |
| 2026-05-01 08:36 | -5.75177 | 106.85474 | 9246 ft | 302 kts | 23° |
| 2026-05-01 08:36 | -5.73228 | 106.86291 | 9587 ft | 304 kts | 23° |
| 2026-05-01 08:36 | -5.71277 | 106.87109 | 9918 ft | 305 kts | 23° |
| 2026-05-01 08:36 | -5.69308 | 106.87935 | 10199 ft | 309 kts | 23° |
| 2026-05-01 08:37 | -5.67300 | 106.88778 | 10328 ft | 317 kts | 23° |
| 2026-05-01 08:37 | -5.65247 | 106.89643 | 10457 ft | 323 kts | 23° |
| 2026-05-01 08:37 | -5.63155 | 106.90520 | 10588 ft | 329 kts | 23° |
| 2026-05-01 08:37 | -5.61026 | 106.91411 | 10716 ft | 334 kts | 23° |
| 2026-05-01 08:38 | -5.58874 | 106.92314 | 10846 ft | 337 kts | 23° |
| 2026-05-01 08:38 | -5.56696 | 106.93226 | 10973 ft | 341 kts | 23° |
| 2026-05-01 08:38 | -5.54505 | 106.94141 | 11108 ft | 343 kts | 23° |
| 2026-05-01 08:38 | -5.52301 | 106.95064 | 11269 ft | 343 kts | 23° |
| 2026-05-01 08:39 | -5.50123 | 106.95977 | 11414 ft | 344 kts | 23° |
| 2026-05-01 08:39 | -5.47880 | 106.96916 | 11577 ft | 345 kts | 23° |
| 2026-05-01 08:39 | -5.45667 | 106.97843 | 11751 ft | 345 kts | 23° |
| 2026-05-01 08:39 | -5.43445 | 106.98772 | 11921 ft | 346 kts | 23° |
| 2026-05-01 08:40 | -5.38994 | 107.00640 | 12229 ft | 347 kts | 23° |
| 2026-05-01 08:40 | -5.36770 | 107.01571 | 12376 ft | 347 kts | 23° |
| 2026-05-01 08:40 | -5.34546 | 107.02503 | 12515 ft | 345 kts | 23° |
| 2026-05-01 08:41 | -5.32357 | 107.03424 | 12634 ft | 348 kts | 24° |
| 2026-05-01 08:41 | -5.30123 | 107.04365 | 12757 ft | 348 kts | 23° |
| 2026-05-01 08:41 | -5.27920 | 107.05286 | 12298 ft | 336 kts | 23° |
| 2026-05-01 08:41 | -5.25768 | 107.06189 | 11237 ft | 335 kts | 23° |
| 2026-05-01 08:42 | -5.23621 | 107.07086 | 10211 ft | 333 kts | 23° |
| 2026-05-01 08:42 | -5.21508 | 107.07965 | 9585 ft | 319 kts | 22° |
| 2026-05-01 08:42 | -5.19468 | 107.08812 | 8487 ft | 321 kts | 23° |
| 2026-05-01 08:42 | -5.17390 | 107.09682 | 7814 ft | 311 kts | 23° |
| 2026-05-01 08:43 | -5.15463 | 107.10490 | 7288 ft | 298 kts | 23° |
| 2026-05-01 08:43 | -5.13550 | 107.11291 | 6940 ft | 294 kts | 23° |
| 2026-05-01 08:43 | -5.11676 | 107.12076 | 6977 ft | 291 kts | 23° |
| 2026-05-01 08:43 | -5.09786 | 107.12871 | 7332 ft | 297 kts | 23° |
| 2026-05-01 08:44 | -5.07893 | 107.13667 | 8239 ft | 296 kts | 23° |
| 2026-05-01 08:44 | -5.05965 | 107.14470 | 9026 ft | 302 kts | 22° |
| 2026-05-01 08:44 | -5.04021 | 107.15282 | 9731 ft | 305 kts | 23° |
| 2026-05-01 08:44 | -5.02046 | 107.16111 | 10273 ft | 315 kts | 22° |
| 2026-05-01 08:45 | -4.99948 | 107.16986 | 10469 ft | 339 kts | 22° |
| 2026-05-01 08:45 | -4.97712 | 107.17903 | 10866 ft | 353 kts | 22° |
| 2026-05-01 08:45 | -4.95427 | 107.18846 | 11495 ft | 356 kts | 22° |
| 2026-05-01 08:45 | -4.93136 | 107.19807 | 12219 ft | 357 kts | 23° |
| 2026-05-01 08:46 | -4.90843 | 107.20767 | 12886 ft | 359 kts | 23° |
| 2026-05-01 08:46 | -4.88533 | 107.21737 | 13503 ft | 362 kts | 23° |
| 2026-05-01 08:46 | -4.86197 | 107.22722 | 14137 ft | 364 kts | 23° |
| 2026-05-01 08:46 | -4.83861 | 107.23710 | 14748 ft | 365 kts | 23° |
| 2026-05-01 08:47 | -4.81506 | 107.24703 | 15323 ft | 369 kts | 23° |
| 2026-05-01 08:47 | -4.79127 | 107.25701 | 15912 ft | 372 kts | 23° |
| 2026-05-01 08:47 | -4.76736 | 107.26703 | 16496 ft | 374 kts | 24° |
| 2026-05-01 08:47 | -4.74326 | 107.27712 | 17065 ft | 376 kts | 24° |
| 2026-05-01 08:48 | -4.71900 | 107.28726 | 17611 ft | 379 kts | 24° |
| 2026-05-01 08:48 | -4.69462 | 107.29746 | 18157 ft | 381 kts | 24° |
| 2026-05-01 08:48 | -4.67010 | 107.30772 | 18671 ft | 384 kts | 24° |
| 2026-05-01 08:48 | -4.64536 | 107.31807 | 19160 ft | 387 kts | 24° |
| 2026-05-01 08:49 | -4.62046 | 107.32848 | 19634 ft | 390 kts | 24° |
| 2026-05-01 08:49 | -4.59528 | 107.33900 | 20086 ft | 393 kts | 24° |
| 2026-05-01 08:49 | -4.56994 | 107.34958 | 20528 ft | 396 kts | 24° |
| 2026-05-01 08:49 | -4.54441 | 107.36023 | 20957 ft | 399 kts | 24° |
| 2026-05-01 08:50 | -4.51869 | 107.37094 | 21372 ft | 402 kts | 24° |
| 2026-05-01 08:50 | -4.49278 | 107.38172 | 21783 ft | 405 kts | 24° |
| 2026-05-01 08:50 | -4.46671 | 107.39261 | 22176 ft | 407 kts | 24° |
| 2026-05-01 08:50 | -4.44044 | 107.40361 | 22563 ft | 410 kts | 24° |
| 2026-05-01 08:51 | -4.41404 | 107.41464 | 22933 ft | 413 kts | 24° |
| 2026-05-01 08:51 | -4.38744 | 107.42574 | 23294 ft | 415 kts | 24° |
| 2026-05-01 08:51 | -4.36065 | 107.43691 | 23645 ft | 418 kts | 24° |
| 2026-05-01 08:51 | -4.33370 | 107.44816 | 23993 ft | 421 kts | 24° |
| 2026-05-01 08:52 | -4.30664 | 107.45947 | 24321 ft | 423 kts | 24° |
| 2026-05-01 08:52 | -4.27939 | 107.47083 | 24662 ft | 425 kts | 24° |
| 2026-05-01 08:52 | -4.25199 | 107.48225 | 24987 ft | 428 kts | 24° |
| 2026-05-01 08:52 | -4.22444 | 107.49376 | 25308 ft | 430 kts | 24° |
| 2026-05-01 08:53 | -4.19671 | 107.50536 | 25612 ft | 433 kts | 24° |
| 2026-05-01 08:53 | -4.16888 | 107.51702 | 25935 ft | 435 kts | 24° |
| 2026-05-01 08:53 | -4.15035 | 107.52479 | 26136 ft | 436 kts | 24° |
| 2026-05-01 08:53 | -4.12189 | 107.53671 | 26451 ft | 439 kts | 24° |
| 2026-05-01 08:54 | -4.09356 | 107.54854 | 26714 ft | 443 kts | 24° |
| 2026-05-01 08:54 | -4.06507 | 107.56039 | 27062 ft | 444 kts | 24° |
| 2026-05-01 08:54 | -4.02715 | 107.57615 | 27477 ft | 446 kts | 24° |
| 2026-05-01 08:54 | -4.00778 | 107.58421 | 27671 ft | 448 kts | 24° |
| 2026-05-01 08:55 | -3.97890 | 107.59622 | 27932 ft | 450 kts | 24° |
| 2026-05-01 08:55 | -3.94993 | 107.60832 | 28203 ft | 452 kts | 24° |
| 2026-05-01 08:55 | -3.92090 | 107.62049 | 28465 ft | 454 kts | 24° |
| 2026-05-01 08:55 | -3.89167 | 107.63275 | 28741 ft | 456 kts | 24° |
| 2026-05-01 08:56 | -3.86233 | 107.64501 | 29018 ft | 459 kts | 24° |
| 2026-05-01 08:56 | -3.83277 | 107.65734 | 29292 ft | 461 kts | 24° |
| 2026-05-01 08:56 | -3.80310 | 107.66970 | 29538 ft | 462 kts | 23° |
| 2026-05-01 08:56 | -3.77335 | 107.68209 | 29767 ft | 464 kts | 24° |
| 2026-05-01 08:57 | -3.74351 | 107.69451 | 29992 ft | 466 kts | 24° |
| 2026-05-01 08:57 | -3.71349 | 107.70700 | 30210 ft | 467 kts | 24° |
| 2026-05-01 08:57 | -3.68345 | 107.71951 | 30422 ft | 469 kts | 23° |
| 2026-05-01 08:57 | -3.65327 | 107.73207 | 30645 ft | 470 kts | 23° |
| 2026-05-01 08:58 | -3.62343 | 107.74449 | 30869 ft | 471 kts | 23° |
| 2026-05-01 08:58 | -3.59271 | 107.75729 | 31082 ft | 473 kts | 23° |
| 2026-05-01 08:58 | -3.56270 | 107.76980 | 31283 ft | 474 kts | 23° |
| 2026-05-01 08:58 | -3.53230 | 107.78247 | 31615 ft | 472 kts | 23° |
| 2026-05-01 08:59 | -3.50203 | 107.79508 | 31964 ft | 470 kts | 23° |
| 2026-05-01 08:59 | -3.47189 | 107.80766 | 32287 ft | 469 kts | 23° |
| 2026-05-01 08:59 | -3.44178 | 107.82019 | 32595 ft | 467 kts | 23° |
| 2026-05-01 08:59 | -3.41179 | 107.83268 | 32905 ft | 467 kts | 23° |
| 2026-05-01 09:00 | -3.38185 | 107.84518 | 33195 ft | 466 kts | 23° |
| 2026-05-01 09:00 | -3.35197 | 107.85768 | 33501 ft | 465 kts | 23° |
| 2026-05-01 09:00 | -3.32217 | 107.87014 | 33821 ft | 464 kts | 23° |
| 2026-05-01 09:00 | -3.29245 | 107.88252 | 34142 ft | 462 kts | 23° |
| 2026-05-01 09:01 | -3.26283 | 107.89483 | 34434 ft | 461 kts | 23° |
| 2026-05-01 09:01 | -3.23323 | 107.90713 | 34740 ft | 459 kts | 23° |
| 2026-05-01 09:01 | -3.20377 | 107.91936 | 35030 ft | 458 kts | 23° |
| 2026-05-01 09:01 | -3.17435 | 107.93159 | 35311 ft | 457 kts | 23° |
| 2026-05-01 09:02 | -3.14505 | 107.94378 | 35579 ft | 456 kts | 23° |
| 2026-05-01 09:02 | -3.11585 | 107.95593 | 35836 ft | 454 kts | 23° |
| 2026-05-01 09:02 | -3.08668 | 107.96810 | 36091 ft | 453 kts | 23° |
| 2026-05-01 09:02 | -3.05764 | 107.98022 | 36325 ft | 452 kts | 23° |
| 2026-05-01 09:03 | -3.02856 | 107.99234 | 36496 ft | 453 kts | 23° |
| 2026-05-01 09:03 | -2.99943 | 108.00446 | 36627 ft | 454 kts | 23° |
| 2026-05-01 09:03 | -2.97025 | 108.01660 | 36807 ft | 454 kts | 23° |
| 2026-05-01 09:03 | -2.94108 | 108.02873 | 36948 ft | 454 kts | 23° |
| 2026-05-01 09:04 | -2.88311 | 108.05285 | 36971 ft | 449 kts | 23° |
| 2026-05-01 09:04 | -2.82547 | 108.07689 | 36981 ft | 448 kts | 24° |
| 2026-05-01 09:05 | -2.76790 | 108.10089 | 36982 ft | 448 kts | 24° |
| 2026-05-01 09:05 | -2.71027 | 108.12476 | 36983 ft | 448 kts | 23° |
| 2026-05-01 09:06 | -2.65268 | 108.14863 | 36984 ft | 448 kts | 24° |
| 2026-05-01 09:06 | -2.59505 | 108.17265 | 36984 ft | 449 kts | 24° |
| 2026-05-01 09:07 | -2.53748 | 108.19672 | 36982 ft | 449 kts | 24° |
| 2026-05-01 09:07 | -2.47984 | 108.22079 | 36986 ft | 449 kts | 24° |
| 2026-05-01 09:08 | -2.42217 | 108.24470 | 36979 ft | 449 kts | 24° |
| 2026-05-01 09:08 | -2.36447 | 108.26857 | 36979 ft | 449 kts | 24° |
| 2026-05-01 09:09 | -2.30675 | 108.29253 | 36982 ft | 449 kts | 24° |
| 2026-05-01 09:09 | -2.24915 | 108.31649 | 36979 ft | 449 kts | 24° |
| 2026-05-01 09:10 | -2.19148 | 108.34052 | 36987 ft | 449 kts | 24° |
| 2026-05-01 09:10 | -2.13384 | 108.36447 | 36982 ft | 449 kts | 24° |
| 2026-05-01 09:11 | -2.07623 | 108.38840 | 36983 ft | 449 kts | 24° |
| 2026-05-01 09:11 | -2.01851 | 108.41240 | 36980 ft | 449 kts | 24° |
| 2026-05-01 09:12 | -1.96085 | 108.43637 | 36980 ft | 449 kts | 24° |
| 2026-05-01 09:12 | -1.90319 | 108.46037 | 36980 ft | 449 kts | 24° |
| 2026-05-01 09:13 | -1.84553 | 108.48430 | 36986 ft | 449 kts | 24° |
| 2026-05-01 09:13 | -1.78789 | 108.50822 | 36979 ft | 449 kts | 24° |
| 2026-05-01 09:14 | -1.73025 | 108.53212 | 36981 ft | 448 kts | 24° |
| 2026-05-01 09:14 | -1.67267 | 108.55610 | 36982 ft | 448 kts | 24° |
| 2026-05-01 09:15 | -1.64384 | 108.56810 | 36834 ft | 451 kts | 24° |
| 2026-05-01 09:15 | -1.61474 | 108.58016 | 36240 ft | 450 kts | 24° |
| 2026-05-01 09:15 | -1.58622 | 108.59194 | 36128 ft | 437 kts | 24° |
| 2026-05-01 09:15 | -1.55895 | 108.60325 | 36028 ft | 424 kts | 24° |
| 2026-05-01 09:16 | -1.50477 | 108.62574 | 35852 ft | 427 kts | 24° |
| 2026-05-01 09:17 | -1.42179 | 108.66031 | 35568 ft | 432 kts | 24° |
| 2026-05-01 09:17 | -1.33849 | 108.69486 | 35284 ft | 433 kts | 24° |
| 2026-05-01 09:18 | -1.25504 | 108.72943 | 34994 ft | 433 kts | 24° |
| 2026-05-01 09:19 | -1.19932 | 108.75264 | 34799 ft | 434 kts | 24° |
| 2026-05-01 09:19 | -1.17131 | 108.76431 | 34193 ft | 441 kts | 23° |
| 2026-05-01 09:19 | -1.14261 | 108.77624 | 33129 ft | 450 kts | 23° |
| 2026-05-01 09:20 | -1.08410 | 108.80051 | 31157 ft | 461 kts | 23° |
| 2026-05-01 09:20 | -1.02473 | 108.82523 | 29717 ft | 457 kts | 23° |
| 2026-05-01 09:21 | -0.96656 | 108.84937 | 28387 ft | 451 kts | 23° |
| 2026-05-01 09:21 | -0.93772 | 108.86131 | 27773 ft | 446 kts | 23° |
| 2026-05-01 09:21 | -0.88083 | 108.88483 | 26516 ft | 439 kts | 24° |
| 2026-05-01 09:22 | -0.82455 | 108.90684 | 25289 ft | 431 kts | 21° |
| 2026-05-01 09:22 | -0.76866 | 108.92699 | 24064 ft | 423 kts | 21° |
| 2026-05-01 09:23 | -0.74108 | 108.93684 | 23513 ft | 417 kts | 21° |
| 2026-05-01 09:23 | -0.68711 | 108.95640 | 22446 ft | 408 kts | 21° |
| 2026-05-01 09:24 | -0.63485 | 108.97575 | 21482 ft | 396 kts | 21° |
| 2026-05-01 09:24 | -0.60913 | 108.98526 | 21019 ft | 391 kts | 21° |
| 2026-05-01 09:24 | -0.55955 | 109.00365 | 20638 ft | 364 kts | 22° |
| 2026-05-01 09:25 | -0.51372 | 109.02063 | 19484 ft | 345 kts | 22° |
| 2026-05-01 09:25 | -0.46947 | 109.03693 | 18333 ft | 330 kts | 21° |
| 2026-05-01 09:26 | -0.44829 | 109.04468 | 17931 ft | 319 kts | 21° |
| 2026-05-01 09:26 | -0.40768 | 109.05951 | 17095 ft | 305 kts | 21° |
| 2026-05-01 09:26 | -0.38799 | 109.06676 | 16692 ft | 300 kts | 22° |
| 2026-05-01 09:27 | -0.34895 | 109.08126 | 15869 ft | 298 kts | 21° |
| 2026-05-01 09:27 | -0.32957 | 109.08848 | 15462 ft | 296 kts | 21° |
| 2026-05-01 09:27 | -0.31030 | 109.09565 | 15071 ft | 295 kts | 21° |
| 2026-05-01 09:28 | -0.29110 | 109.10276 | 14683 ft | 294 kts | 21° |
| 2026-05-01 09:28 | -0.27179 | 109.10988 | 14285 ft | 297 kts | 21° |
| 2026-05-01 09:28 | -0.25229 | 109.11705 | 13871 ft | 300 kts | 21° |
| 2026-05-01 09:28 | -0.23262 | 109.12430 | 13462 ft | 302 kts | 21° |
| 2026-05-01 09:29 | -0.19139 | 109.13364 | 12599 ft | 307 kts | 10° |
| 2026-05-01 09:29 | -0.17012 | 109.13696 | 12172 ft | 311 kts | 9° |
| 2026-05-01 09:30 | -0.12708 | 109.14378 | 11239 ft | 315 kts | 9° |
| 2026-05-01 09:30 | -0.10581 | 109.14717 | 10903 ft | 302 kts | 9° |
| 2026-05-01 09:30 | -0.06571 | 109.15359 | 10098 ft | 284 kts | 9° |
| 2026-05-01 09:31 | -0.04643 | 109.15668 | 9673 ft | 276 kts | 10° |
| 2026-05-01 09:31 | -0.02774 | 109.15981 | 9256 ft | 270 kts | 15° |
| 2026-05-01 09:31 | 0.00198 | 109.17890 | 8450 ft | 253 kts | 54° |
| 2026-05-01 09:32 | 0.01059 | 109.19413 | 8039 ft | 253 kts | 70° |
| 2026-05-01 09:32 | 0.02370 | 109.22715 | 7186 ft | 257 kts | 70° |
| 2026-05-01 09:32 | 0.03022 | 109.24341 | 6765 ft | 256 kts | 69° |
| 2026-05-01 09:33 | 0.03695 | 109.26022 | 6318 ft | 257 kts | 69° |
| 2026-05-01 09:33 | 0.04366 | 109.27688 | 5880 ft | 260 kts | 69° |
| 2026-05-01 09:33 | 0.05110 | 109.31111 | 5217 ft | 252 kts | 108° |
| 2026-05-01 09:34 | 0.04157 | 109.32486 | 4971 ft | 235 kts | 147° |
| 2026-05-01 09:34 | 0.02751 | 109.33187 | 4533 ft | 220 kts | 160° |
| 2026-05-01 09:34 | 0.00039 | 109.34239 | 3573 ft | 201 kts | 159° |
| 2026-05-01 09:35 | -0.01238 | 109.34754 | 3014 ft | 196 kts | 158° |
| 2026-05-01 09:35 | -0.03639 | 109.35735 | 2273 ft | 173 kts | 159° |
| 2026-05-01 09:35 | -0.04357 | 109.36027 | 2090 ft | 163 kts | 160° |
| 2026-05-01 09:36 | -0.05362 | 109.36433 | 1873 ft | 152 kts | 161° |
| 2026-05-01 09:36 | -0.06662 | 109.36961 | 1611 ft | 148 kts | 161° |
| 2026-05-01 09:36 | -0.07284 | 109.37216 | 1470 ft | 146 kts | 161° |
| 2026-05-01 09:36 | -0.08224 | 109.37598 | 1284 ft | 147 kts | 163° |
| 2026-05-01 09:37 | -0.09159 | 109.37979 | 1089 ft | 144 kts | 161° |
| 2026-05-01 09:37 | -0.11004 | 109.38733 | 716 ft | 143 kts | 161° |
| 2026-05-01 09:37 | -0.11921 | 109.39102 | 539 ft | 141 kts | 162° |
| 2026-05-01 09:38 | -0.13743 | 109.39839 | 143 ft | 141 kts | 159° |
| 2026-05-01 09:38 | -0.14633 | 109.40203 | 35 ft | 131 kts | 160° |
| 2026-05-01 09:38 | -0.15344 | 109.40490 | 32 ft | 86 kts | 156° |
| 2026-05-01 09:39 | -0.15910 | 109.40727 | 29 ft | 23 kts | 146° |
| 2026-05-01 09:39 | -0.15982 | 109.40781 | 30 ft | 8 kts | 188° |
| 2026-05-01 09:39 | -0.15981 | 109.40755 | 30 ft | 8 kts | 316° |
| 2026-05-01 09:40 | -0.15880 | 109.40712 | 29 ft | 22 kts | 338° |
| 2026-05-01 09:40 | -0.15548 | 109.40576 | 30 ft | 25 kts | 338° |
| 2026-05-01 09:40 | -0.15389 | 109.40510 | 30 ft | 24 kts | 337° |
| 2026-05-01 09:41 | -0.15229 | 109.40445 | 32 ft | 25 kts | 338° |
| 2026-05-01 09:41 | -0.14986 | 109.40348 | 33 ft | 8 kts | 338° |
| 2026-05-01 09:41 | -0.14949 | 109.40333 | 33 ft | 3 kts | 338° |
| 2026-05-01 09:42 | -0.14918 | 109.40320 | 33 ft | 11 kts | 337° |
| 2026-05-01 09:42 | -0.14859 | 109.40332 | 32 ft | 7 kts | 49° |
| 2026-05-01 09:42 | -0.14845 | 109.40361 | 32 ft | 2 kts | 64° |
| 2026-05-01 09:43 | -0.14822 | 109.40403 | 32 ft | 1 kts | 67° |
| 2026-05-01 09:43 | -0.14816 | 109.40417 | 31 ft | 4 kts | 67° |
| 2026-05-01 09:43 | -0.14811 | 109.40429 | 31 ft | 2 kts | 67° |
| 2026-05-01 09:44 | -0.14809 | 109.40434 | 32 ft | 0 kts | 67° |